Aeroporto :
LOGIN :

Iscrizione | Disclaimer

   EN    FR    IT 

 










Sommario :    VFR   VFR Marginale   IFR   IFR Intensivo   IFR Molto Intensivo
Visibilità : 
Base nubi : 
>= 8 km
>= 3000ft
5 / 8 km
1000 / 3000 ft
1500m / 5 km
500 / 1000 ft
800 / 1500m
200 / 500 ft
< 800m
< 200 ft
Simboli :   Temporali  Nebbia  Neve Forte  Precipitazioni Forti  Vento > 20 kt
SIGMETs :   Varie  Temporali  Ghiacco  Turbolenza  Onda orograficha  Ceneri Vulcaniche






- Altitudine del aeroporto : 863 ft
- Codice IATA : ZAZ


LEZG - Zaragoza Aragon

ULTIMO METAR :
  • 271300Z 11009KT 070V190 CAVOK 28/12 Q1025

METARs OBSOLETI :
  • 271230Z 10007KT 060V150 CAVOK 27/14 Q1025
  • 271200Z 14005KT CAVOK 26/14 Q1025
  • 271130Z 10003KT CAVOK 26/15 Q1026
  • 271100Z VRB02KT CAVOK 24/14 Q1026
  • 271030Z 12001KT CAVOK 24/14 Q1026

TAF TAF LEZG
Valido dal 27 a 12 ore il 28 a 12 ore UTC


271100Z 2712/2812 13010KT 9999 FEW070 TX31/2713Z TN17/2806Z



MetMap, La meteo Aeronautica in un colpo d'occhio ! - Copyright ORBIFLY Dicembre 2007 - Disclaimer

ORBIFLY MET'MAP TEAM :

Programmazione e sviluppo : Alexandra Zaïnal
Concezione : Baudouin d'Aumeries
Aiuto per la programmazione : Marc-Olivier Méhu
Supporto tecnico e logistico : Manuel Goepfert
Aiuto per la traduzione : Arnaldo La Scala

Contatto : metmap@orbifly.com




FONTI E CREDITI :

   NOAA